Weather observations for the past three days for
Jefferson - Ashe County Airport
Imperial (Metric)
Date Time (edt) Wind (mph) Vis. (mi.) Weather Sky Cond. Temperature (ºF) Relative Humidity Wind Chill (°F) Heat Index (°F) Pressure Precipitation (in)
Air Dwpt 6 hour altimeter (in) sea level (mb) 1 hr 3 hr 6 hr
Max. Min.
10 10:35 W 8 10.00 Fair CLR 64.4 42.6 45% 30.1 0.0
10 10:15 W 7 10.00 Fair CLR 63.1 42.6 47% 30.09 0.0
10 09:55 W 6 10.00 Fair CLR 62.8 42.8 48% 30.1 0.0
10 09:35 Calm 10.00 Fair CLR 61 46.2 59% 30.1 0.0
10 09:15 Calm 10.00 Fair CLR 60.8 43.9 54% 30.09 0.0
10 08:55 Calm 10.00 Fair CLR 58.6 44.8 60% 30.08 0.0
10 08:35 E 3 10.00 Fair CLR 56.7 45.5 66% 30.08 0.0
10 08:15 Calm 10.00 Fair CLR 55.8 46.2 70% 30.08 0.0
10 07:55 Calm 10.00 Fair CLR 55.9 43.5 57.2 46.4 63% 30.07 0.0
10 07:35 W 8 10.00 Fair CLR 54.5 41.9 63% 30.06 0.0
10 07:15 W 3 10.00 Fair CLR 53.2 41.4 64% 30.04 0.0
10 06:55 W 5 10.00 Fair CLR 54 41 62% 30.04 0.0
10 06:35 W 3 10.00 Fair CLR 52 40.8 66% 30.03 0.0
10 06:15 NW 6 10.00 Fair CLR 53.2 40.1 61% 30.03 0.0
10 05:55 NW 5 10.00 Fair CLR 53.1 41.2 64% 30.01 0.0
10 05:35 NW 6 10.00 Fair CLR 55.4 41.4 59% 30.01 0.0
10 05:15 W 7 10.00 Fair CLR 54.3 44.8 70% 30.01 0.0
10 04:55 Calm 10.00 Fair CLR 48.7 44.4 85% 30.01 0.0
10 04:35 W 3 10.00 Fair CLR 53.6 47.3 79% 30.01 0.0
10 04:15 Calm 10.00 Fair CLR 52.7 46.9 81% 29.99 0.0
10 03:55 Calm 10.00 Fair CLR 52.2 46.8 82% 29.99 0.0
10 03:35 Calm 10.00 Fair CLR 50.9 46.6 85% 29.99 0.0
10 03:15 Calm 10.00 Fair CLR 46.9 45.1 94% 29.99 0.0
10 02:55 NW 7 10.00 Fair CLR 54.7 47.5 77% 29.98 0.0
10 02:35 W 7 10.00 Fair CLR 56.3 47.7 73% 29.99 0.0
10 02:15 W 6 10.00 Fair CLR 54.5 46.6 75% 29.99 0.0
10 01:55 Calm 10.00 Fair CLR 54.7 45.9 62.6 51.3 72% 29.99 0.0
10 01:35 Calm 10.00 Fair CLR 53.6 45.9 75% 29.99 0.0
10 01:15 Calm 10.00 Fair CLR 54.3 45.9 73% 29.99 0.0
10 00:55 Calm 10.00 Fair CLR 54.7 45.7 72% 29.99 0.0
10 00:35 Calm 10.00 Fair CLR 53.6 45.5 74% 29.99 0.0
10 00:15 SE 3 10.00 Fair CLR 52.3 45.7 78% 29.99 0.0
09 23:55 W 3 10.00 Fair CLR 53.6 45.7 75% 29.99 0.0
09 23:35 Calm 10.00 Fair CLR 53.1 45.5 76% 29.99 0.0
09 23:15 W 6 10.00 Fair CLR 58.1 45.5 63% 29.99 0.0
09 22:55 W 5 10.00 Fair CLR 58.1 45.5 63% 29.99 0.0
09 22:35 W 3 10.00 Fair CLR 54.1 45.9 74% 29.98 0.0
09 22:15 W 6 10.00 Fair CLR 59.9 45.3 59% 29.98 0.0
09 21:55 W 6 10.00 Fair CLR 60.1 45 58% 29.97 0.0
09 21:35 W 3 10.00 Fair CLR 60.3 44.8 57% 29.97 0.0
09 21:15 SW 3 10.00 Fair CLR 60.3 44.6 56% 29.95 0.0
09 20:55 Calm 10.00 Fair CLR 60.6 44.2 55% 29.94 0.0
09 20:35 W 6 10.00 Fair CLR 61.5 43.9 53% 29.93 0.0
09 20:15 W 10 10.00 Fair CLR 61.9 43.2 50% 29.92 0.0
09 19:55 W 9 10.00 Partly Cloudy SCT050 63 42.4 68.9 63 47% 29.92 0.0
09 19:35 W 3 10.00 Partly Cloudy SCT050 63.5 43.7 49% 29.92 0.0
09 19:15 W 8 10.00 Partly Cloudy SCT050 64.2 43.5 47% 29.92 0.0
09 18:55 W 10 10.00 Fair CLR 64.6 43.9 47% 29.92 0.0
09 18:35 W 10 10.00 Fair CLR 64.4 43.7 47% 29.91 0.0
09 18:15 W 15 10.00 Fair CLR 64.4 44.6 49% 29.91 0.0
09 17:55 W 10 G 22 10.00 Partly Cloudy SCT050 64.8 45.3 50% 29.91 0.0
09 17:35 W 12 G 17 10.00 Mostly Cloudy SCT050 BKN055 65.3 44.6 47% 29.91 0.0
09 17:15 W 13 G 18 10.00 Partly Cloudy SCT048 SCT060 65.3 45.1 48% 29.9 0.0
09 16:55 W 13 G 17 10.00 Partly Cloudy SCT050 65.8 45.1 47% 29.9 0.0
09 16:35 W 14 G 22 10.00 Mostly Cloudy BKN050 66.2 44.4 46% 29.89 0.0
09 16:15 W 12 G 22 10.00 Partly Cloudy SCT060 SCT065 67.1 43.5 43% 29.89 0.0
09 15:55 W 8 G 21 10.00 Partly Cloudy SCT060 67.8 40.8 37% 29.89 0.0
09 15:35 W 14 G 20 10.00 Fair CLR 67.8 40.3 37% 29.89 0.0
09 15:15 W 10 G 24 10.00 Fair CLR 67.6 39.7 36% 29.89 0.0
09 14:55 W 13 G 20 10.00 Partly Cloudy SCT070 67.5 40.8 38% 29.88 0.0
09 14:35 Calm 10.00 Partly Cloudy SCT060 SCT070 64.4 49.8 59% 29.88 0.0
09 14:15 S 5 10.00 Partly Cloudy SCT046 SCT060 SCT070 63.7 48.4 58% 29.89 0.0
09 13:55 Calm 10.00 Mostly Cloudy SCT035 SCT046 BKN050 64 50.4 64.2 49.5 61% 29.89 0.0
09 13:35 S 5 10.00 Overcast SCT035 BKN044 OVC050 61.3 48.7 63% 29.9 0.0
09 13:15 S 6 10.00 Overcast SCT029 BKN046 OVC050 62.6 50.2 64% 29.9 0.0
09 12:55 Calm 10.00 Overcast SCT029 BKN050 OVC060 60.3 48.2 65% 29.91 0.0
09 12:35 Calm 10.00 Overcast OVC055 63.1 44.4 51% 29.92 0.0
09 12:15 SW 5 10.00 Overcast SCT033 SCT049 OVC055 61 45.9 58% 29.92 0.0
09 11:55 Calm 10.00 Mostly Cloudy SCT035 SCT045 BKN055 60.8 48.9 65% 29.92 0.0
09 11:35 E 6 10.00 Mostly Cloudy SCT030 SCT039 BKN045 60.4 49.5 67% 29.91 0.0
09 11:15 E 7 10.00 Partly Cloudy SCT030 SCT038 SCT048 59.9 48.4 66% 29.9 0.0
09 10:55 E 7 10.00 Partly Cloudy SCT037 59 48 67% 29.91 0.0
09 10:35 E 6 10.00 Fair CLR 58.1 48.4 70% 29.91 0.0
09 10:15 Calm 10.00 Fair CLR 57 47.3 70% 29.91 0.0
09 09:55 E 5 10.00 Fair CLR 56.1 47.1 72% 29.92 0.0
09 09:35 S 5 10.00 Fair CLR 55.2 47.5 75% 29.91 0.0
09 09:15 Calm 10.00 Fair CLR 53.2 47.1 80% 29.92 0.0
09 08:55 Calm 10.00 Fair CLR 50.9 46.4 85% 29.93 0.0
09 08:35 Calm 10.00 Fair CLR 51.4 46.6 84% 29.93 0.0
09 08:15 Calm 10.00 Fair CLR 50.9 46.8 86% 29.94 0.0
09 07:55 Calm 10.00 Fair CLR 48.9 45.1 50.2 46.6 87% 29.94 0.0
09 07:35 Calm 10.00 Fair CLR 48.6 44.8 87% 29.93 0.0
09 07:15 Calm 10.00 Fair CLR 49.1 44.6 85% 29.93 0.0
09 06:55 Calm 10.00 Fair CLR 47.3 44.1 89% 29.92 0.0
09 06:35 Calm 10.00 Fair CLR 47.5 44.6 90% 29.92 0.0
09 06:15 Calm 10.00 Fair CLR 47.8 44.4 88% 29.91 0.0
09 05:55 Calm 10.00 Fair CLR 47.3 43.9 88% 29.91 0.0
09 05:35 Calm 10.00 Partly Cloudy SCT020 47.7 44.4 89% 29.91 0.0
09 05:15 SE 3 10.00 Partly Cloudy SCT020 47.8 44.6 89% 29.92 0.0
09 04:55 SE 3 10.00 Mostly Cloudy BKN020 48.4 44.2 86% 29.92 0.0
09 04:35 SE 3 10.00 Partly Cloudy SCT020 48.9 44.6 85% 29.92 0.0
09 04:15 S 3 10.00 Partly Cloudy SCT020 48.4 44.2 86% 29.92 0.0
09 03:55 S 3 10.00 Fair CLR 48.6 44.2 85% 29.92 0.0
09 03:35 S 3 10.00 Fair CLR 49.1 44.2 83% 29.93 0.0
09 03:15 S 3 10.00 Fair CLR 50 44.6 82% 29.94 0.0
09 02:55 Calm 10.00 Fair CLR 50.2 44.6 81% 29.95 0.0
09 02:35 S 3 10.00 Fair CLR 49.6 44.6 83% 29.94 0.0
09 02:15 S 3 10.00 Fair CLR 49.8 44.4 82% 29.95 0.0
09 01:55 S 3 10.00 Fair CLR 50.2 44.2 56.3 49.6 80% 29.97 0.0
09 01:35 S 3 10.00 Fair CLR 50 43.9 80% 29.97 0.0
09 01:15 S 3 10.00 Fair CLR 50 43.7 79% 29.98 0.0
09 00:55 S 3 10.00 Fair CLR 50 43.7 79% 29.98 0.0
09 00:35 S 3 10.00 Fair CLR 50.4 43.7 78% 29.98 0.0
09 00:15 S 3 10.00 Fair CLR 50.7 43.2 75% 29.98 0.0
08 23:55 S 3 10.00 Fair CLR 50.9 43 74% 29.99 0.0
08 23:35 S 3 10.00 Fair CLR 51.1 42.8 73% 29.99 0.0
08 23:15 Calm 10.00 Fair CLR 50.9 42.8 74% 29.99 0.0
08 22:55 Calm 10.00 Fair CLR 51.1 42.8 73% 29.99 0.0
08 22:35 Calm 10.00 Fair CLR 51.6 42.4 71% 30 0.0
08 22:15 Calm 10.00 Fair CLR 51.8 42.1 70% 30 0.0
08 21:55 Calm 10.00 Partly Cloudy SCT040 52.5 41.9 67% 29.99 0.0
08 21:35 Calm 10.00 Mostly Cloudy SCT036 BKN042 51.8 41.4 68% 29.99 0.0
08 21:15 Calm 10.00 Mostly Cloudy SCT035 BKN043 52.3 41.2 66% 29.99 0.0
08 20:55 Calm 10.00 Partly Cloudy SCT045 53.6 41 63% 29.99 0.0
08 20:35 Calm 10.00 Fair CLR 54.5 40.5 59% 29.98 0.0
08 20:15 S 6 10.00 Fair CLR 55.4 40.1 57% 29.98 0.0
08 19:55 S 6 10.00 Fair CLR 56.3 39.9 62.1 56.3 54% 29.97 0.0
08 19:35 S 5 10.00 Fair CLR 57.4 39.6 52% 29.97 0.0
08 19:15 S 6 10.00 Fair CLR 57.9 39.2 50% 29.97 0.0
08 18:55 S 6 10.00 Fair CLR 58.3 37.4 46% 29.98 0.0
08 18:35 S 7 10.00 Fair CLR 59.4 36 42% 29.97 0.0
08 18:15 SE 8 10.00 Fair CLR 59.5 33.8 38% 29.97 0.0
08 17:55 SE 7 10.00 Fair CLR 60.3 33.1 36% 29.96 0.0
08 17:35 SE 7 10.00 Fair CLR 60.6 31.8 34% 29.96 0.0
08 17:15 S 8 10.00 Fair CLR 60.6 30.6 32% 29.96 0.0
08 16:55 SE 9 10.00 Fair CLR 61 31.1 32% 29.97 0.0
08 16:35 S 8 G 17 10.00 Fair CLR 61.2 31.1 32% 29.98 0.0
08 16:15 SE 6 G 17 10.00 Fair CLR 61.5 31.5 32% 29.99 0.0
08 15:55 SE 7 G 22 10.00 Fair CLR 61.2 30.6 32% 29.99 0.0
08 15:35 SE 10 10.00 Fair CLR 60.3 30.7 33% 30 0.0
08 15:15 SE 6 10.00 Fair CLR 60.3 29.3 31% 30.01 0.0
08 14:55 S 8 10.00 Fair CLR 59.7 29.5 32% 30.02 0.0
08 14:35 S 9 10.00 Fair CLR 59.5 28.6 31% 30.02 0.0
08 14:15 E 3 10.00 Fair CLR 58.8 29.7 33% 30.02 0.0
08 13:55 E 10 10.00 Fair CLR 59.5 33.8 59.5 41.9 38% 30.03 0.0
08 13:35 E 12 10.00 Fair CLR 57.4 32.2 39% 30.04 0.0
08 13:15 S 7 10.00 Fair CLR 57.6 32.4 39% 30.04 0.0
08 12:55 Calm 10.00 Fair CLR 57 30.6 37% 30.05 0.0
08 12:35 SW 6 10.00 Fair CLR 56.8 27.3 32% 30.06 0.0
08 12:15 SE 3 10.00 Fair CLR 56.8 28.9 34% 30.07 0.0
08 11:55 NE 6 10.00 Fair CLR 55.9 28.6 35% 30.08 0.0
08 11:35 NE 7 10.00 Fair CLR 55 29.1 37% 30.08 0.0
08 11:15 SE 3 10.00 Fair CLR 54 26.6 35% 30.08 0.0
08 10:55 S 3 10.00 Fair CLR 53.2 27.5 37% 30.08 0.0
08 10:35 Calm 10.00 Fair CLR 51.4 26.6 38% 30.08 0.0
08 10:15 N 3 10.00 Fair CLR 51.3 27.5 40% 30.08 0.0
08 09:55 E 6 10.00 Fair CLR 50 28.6 44% 48 30.08 0.0
08 09:35 Calm 10.00 Fair CLR 49.1 31.5 51% 30.08 0.0
08 09:15 SE 3 10.00 Fair CLR 48 32.5 55% 30.07 0.0
08 08:55 Calm 10.00 Fair CLR 45.9 31.8 58% 30.07 0.0
08 08:35 SE 3 10.00 Fair CLR 44.2 33.4 66% 30.07 0.0
08 08:15 Calm 10.00 Fair CLR 44.8 32.2 61% 30.06 0.0
08 07:55 Calm 10.00 Fair CLR 41.9 31.8 44.6 37.9 68% 30.05 0.0
08 07:35 Calm 10.00 Fair CLR 41.5 31.3 67% 30.04 0.0
08 07:15 E 3 10.00 Fair CLR 42.1 30.4 63% 30.03 0.0
08 06:55 E 3 10.00 Fair CLR 38.8 32 77% 30.02 0.0
08 06:35 Calm 10.00 Fair CLR 39.2 30.7 72% 30.01 0.0
08 06:15 NW 7 10.00 Fair CLR 41 30.9 67% 37 30.01 0.0
08 05:55 NW 6 10.00 Fair CLR 40.6 31.5 70% 37 30.01 0.0
08 05:35 NW 3 10.00 Fair CLR 41.2 31.8 69% 30 0.0
08 05:15 NW 5 10.00 Fair CLR 41.5 32 69% 39 30 0.0
08 04:55 NW 6 10.00 Fair CLR 42.1 32.4 69% 39 30.01 0.0
08 04:35 NW 8 10.00 Fair CLR 42.3 33.1 70% 38 30 0.0
08 04:15 NW 9 10.00 Fair CLR 42.8 33.8 71% 38 29.99 0.0
08 03:55 NW 8 10.00 Fair CLR 42.8 34.7 73% 39 29.99 0.0
08 03:35 NW 12 10.00 Fair CLR 43 35.6 75% 37 29.99 0.0
08 03:15 NW 13 10.00 Fair CLR 43.3 36.1 76% 37 29.99 0.0
08 02:55 NW 10 10.00 Fair CLR 43.3 36.7 77% 38 29.99 0.0
08 02:35 NW 8 10.00 Fair CLR 43.9 37 77% 40 30.01 0.0
08 02:15 NW 7 10.00 Fair CLR 44.1 37.6 78% 41 30.01 0.0
08 01:55 NW 8 10.00 Fair CLR 44.6 39.2 49.1 44.6 81% 41 30.01 0.0
08 01:35 NW 8 10.00 Fair CLR 44.6 39.9 84% 41 30.01 0.0
08 01:15 NW 6 10.00 Fair CLR 45.9 39.6 79% 43 30.01 0.0
08 00:55 NW 5 10.00 Partly Cloudy SCT044 46.4 40.1 79% 45 30 0.0
08 00:35 NW 3 10.00 Mostly Cloudy SCT038 BKN046 46.9 40.6 79% 30 0.0
08 00:15 NW 6 10.00 Mostly Cloudy SCT023 BKN039 BKN045 47.5 40.6 77% 45 29.99 0.0
07 23:55 W 5 10.00 Overcast SCT023 SCT029 OVC040 47.5 41.2 79% 46 29.99 0.0
07 23:35 W 6 10.00 Overcast SCT023 SCT029 OVC042 47.5 41.4 79% 45 29.99 0.0
07 23:15 W 7 10.00 Partly Cloudy SCT024 SCT029 SCT040 47.3 41.4 80% 44 29.99 0.0
07 22:55 W 7 10.00 Partly Cloudy SCT038 47.5 41.2 79% 45 29.98 0.0
07 22:35 W 8 10.00 Fair CLR 47.3 40.5 77% 44 29.98 0.0
07 22:15 W 8 10.00 Fair CLR 47.7 40.1 75% 44 29.97 0.0
07 21:55 NW 9 10.00 Fair CLR 47.8 40.1 75% 44 29.97 0.0
07 21:35 W 10 G 17 10.00 Fair CLR 47.8 39.6 73% 44 29.95 0.0
07 21:15 W 10 10.00 Fair CLR 47.7 39.6 74% 44 29.94 0.0
07 20:55 NW 8 10.00 Fair CLR 47.8 39.6 73% 45 29.93 0.0
07 20:35 W 10 G 17 10.00 Fair CLR 48.2 39.2 71% 44 29.93 0.0
07 20:15 W 10 G 20 10.00 Fair CLR 48.7 39.2 70% 45 29.93 0.0
07 19:55 W 14 G 17 10.00 Fair CLR 49.1 39.7 59.7 49.1 70% 44 29.92 0.0
07 19:35 W 14 G 23 10.00 Partly Cloudy SCT024 49.3 40.1 71% 45 29.92 0.0
07 19:15 W 17 G 24 10.00 Partly Cloudy SCT024 50.2 39.9 68% 29.92 0.0
07 18:55 W 21 G 29 10.00 Fair and Breezy CLR 50.4 40.1 68% 29.91 0.0
07 18:35 W 21 G 28 10.00 Fair and Breezy CLR 50.2 41.2 71% 29.91 0.0
07 18:15 W 18 G 30 10.00 Partly Cloudy SCT015 50.4 41.4 71% 29.9 0.0
07 17:55 W 15 G 25 10.00 Mostly Cloudy SCT015 BKN023 50.7 42.4 73% 29.9 0.0
07 17:35 W 18 G 22 10.00 Overcast BKN013 OVC023 49.3 42.8 78% 43 29.89 0.0
07 17:15 W 21 G 26 10.00 Overcast and Breezy OVC013 52.3 45 76% 29.89 0.0
07 16:55 W 14 G 25 10.00 Overcast OVC013 54.3 46.2 74% 29.87 0.0
07 16:35 W 18 G 26 10.00 Mostly Cloudy BKN013 54.9 46.4 73% 29.87 0.0
07 16:15 W 18 G 30 10.00 Partly Cloudy SCT015 55.6 47.1 73% 29.86 0.0
07 15:55 W 20 G 29 10.00 Fair CLR 57.2 47.3 70% 29.86 0.0
07 15:35 W 24 G 28 10.00 Partly Cloudy and Breezy SCT016 56.3 48.6 75% 29.87 0.0
07 15:15 W 22 G 29 10.00 Partly Cloudy and Breezy SCT014 58.3 48.7 71% 29.87 0.0
07 14:55 W 17 G 25 10.00 Fair CLR 59 49.1 70% 29.88 0.0
07 14:35 W 22 G 25 10.00 Partly Cloudy and Breezy SCT075 59 49.3 70% 29.88 0.0
07 14:15 W 16 G 29 10.00 Mostly Cloudy SCT055 BKN065 BKN075 58.5 49.3 72% 29.88 0.0
07 13:55 W 16 10.00 Overcast OVC060 59.5 50.5 63.3 55.4 72% 29.87 0.0 0.01
07 13:35 W 18 G 24 10.00 Mostly Cloudy SCT030 SCT039 BKN060 63.1 51.8 67% 29.86 0.0
07 13:15 W 15 10.00 Mostly Cloudy SCT029 SCT036 BKN065 63 52.2 68% 29.86 0.0
07 12:55 W 13 G 18 10.00 Overcast SCT050 OVC065 62.8 52.3 69% 29.86 0.0
07 12:35 W 8 10.00 Overcast SCT021 OVC060 61.9 52.3 71% 29.87 0.0
07 12:15 NE 3 10.00 Overcast BKN021 BKN050 OVC070 62.1 55.6 79% 29.87 0.0
07 11:55 W 6 10.00 Mostly Cloudy BKN021 BKN060 BKN070 61.7 53.8 75% 29.87 0.0
07 11:35 W 6 10.00 Mostly Cloudy SCT015 BKN021 BKN027 61.9 54.9 78% 29.87 0.0
07 11:15 W 6 10.00 Overcast SCT008 BKN013 OVC028 61.9 56.3 82% 29.87 0.0
Date Time (edt) Wind (mph) Vis. (mi.) Weather Sky Cond. Air Dwpt Max. Min. Relative Humidity Wind Chill (°F) Heat Index (°F) altimeter (in) sea level (mb) 1 hr 3 hr 6 hr
6 hour
Temperature (ºF) Pressure Precipitation (in)